createdAt,value
2018-06-01T00:00:41.744Z,18.40
2018-06-01T00:03:11.002Z,18.52
2018-06-01T00:05:39.573Z,18.71
2018-06-01T00:08:09.242Z,18.85
2018-06-01T00:10:37.967Z,18.81
2018-06-01T00:13:06.553Z,18.82
2018-06-01T00:15:35.549Z,18.72
2018-06-01T00:18:04.090Z,18.73
2018-06-01T00:20:33.547Z,18.79
2018-06-01T00:23:02.109Z,18.65
2018-06-01T00:25:30.614Z,18.62
2018-06-01T00:27:59.113Z,18.44
2018-06-01T00:30:27.650Z,18.57
2018-06-01T00:32:56.143Z,18.52
2018-06-01T00:35:24.635Z,18.38
2018-06-01T00:37:53.474Z,18.25
2018-06-01T00:40:21.978Z,18.37
2018-06-01T00:42:50.682Z,18.33
2018-06-01T00:45:19.403Z,18.15
2018-06-01T00:47:48.715Z,18.26
2018-06-01T00:50:17.988Z,18.18
2018-06-01T00:52:48.189Z,18.26
2018-06-01T00:55:25.734Z,18.21
2018-06-01T00:57:55.221Z,18.31
2018-06-01T01:00:24.556Z,18.24
2018-06-01T01:02:53.057Z,18.27
2018-06-01T01:05:21.610Z,18.27
2018-06-01T01:07:50.106Z,18.14
2018-06-01T01:10:18.710Z,17.99
2018-06-01T01:12:47.269Z,18.04
2018-06-01T01:15:15.919Z,18.10
2018-06-01T01:17:45.190Z,18.08
2018-06-01T01:20:13.737Z,18.17
2018-06-01T01:22:42.446Z,18.22
2018-06-01T01:25:10.946Z,18.22
2018-06-01T01:27:39.650Z,18.29
2018-06-01T01:30:08.150Z,18.30
2018-06-01T01:32:37.414Z,18.32
2018-06-01T01:35:06.279Z,18.38
2018-06-01T01:37:34.789Z,18.47
2018-06-01T01:40:03.305Z,18.41
2018-06-01T01:42:32.789Z,18.40
2018-06-01T01:45:02.056Z,18.37
2018-06-01T01:47:30.585Z,18.34
2018-06-01T01:50:00.295Z,18.35
2018-06-01T01:52:29.814Z,18.30
2018-06-01T01:54:58.479Z,18.27
2018-06-01T01:57:28.178Z,18.17
2018-06-01T01:59:57.442Z,18.14
2018-06-01T02:02:25.944Z,18.15
2018-06-01T02:04:54.485Z,17.97
2018-06-01T02:07:23.459Z,18.12
2018-06-01T02:09:52.713Z,18.08
2018-06-01T02:12:21.257Z,18.05
2018-06-01T02:14:49.762Z,18.07
2018-06-01T02:17:18.270Z,18.17
2018-06-01T02:19:47.241Z,18.18
2018-06-01T02:22:16.554Z,18.15
2018-06-01T02:24:45.046Z,17.95
2018-06-01T02:27:13.690Z,17.94
2018-06-01T02:29:42.193Z,18.09
2018-06-01T02:32:10.690Z,18.02
2018-06-01T02:34:39.230Z,17.84
2018-06-01T02:37:08.227Z,17.89
2018-06-01T02:39:36.721Z,17.96
2018-06-01T02:42:05.287Z,17.97
2018-06-01T02:44:33.781Z,17.98
2018-06-01T02:47:02.306Z,18.01
2018-06-01T02:49:31.847Z,17.96
2018-06-01T02:52:00.583Z,17.99
2018-06-01T02:54:30.476Z,17.92
2018-06-01T02:56:59.243Z,17.89
2018-06-01T02:59:27.734Z,18.03
2018-06-01T03:01:56.237Z,18.08
2018-06-01T03:04:25.694Z,18.05
2018-06-01T03:07:18.715Z,17.98
2018-06-01T03:09:48.704Z,18.05
2018-06-01T03:12:17.388Z,18.10
2018-06-01T03:14:45.893Z,18.15
2018-06-01T03:17:14.561Z,18.00
2018-06-01T03:19:43.058Z,18.03
2018-06-01T03:22:11.570Z,18.28
2018-06-01T03:24:40.912Z,18.18
2018-06-01T03:27:09.406Z,18.36
2018-06-01T03:29:37.901Z,18.34
2018-06-01T03:32:06.802Z,18.41
2018-06-01T03:34:36.811Z,18.49
2018-06-01T03:37:05.337Z,18.71
2018-06-01T03:39:33.875Z,18.82
2018-06-01T03:42:02.635Z,18.78
2018-06-01T03:44:31.133Z,18.90
2018-06-01T03:46:59.946Z,18.95
2018-06-01T03:49:29.210Z,19.04
2018-06-01T03:51:57.783Z,18.97
2018-06-01T03:54:26.869Z,19.11
2018-06-01T03:56:55.518Z,19.10
2018-06-01T03:59:25.765Z,19.23
2018-06-01T04:01:54.329Z,19.38
2018-06-01T04:04:24.190Z,19.26
2018-06-01T04:06:52.678Z,19.42
2018-06-01T04:09:21.766Z,19.42
2018-06-01T04:11:50.277Z,19.60
2018-06-01T04:14:19.542Z,19.55
2018-06-01T04:16:48.273Z,19.68
2018-06-01T04:19:17.632Z,19.68
2018-06-01T04:21:46.130Z,19.75
2018-06-01T04:24:15.064Z,19.92
2018-06-01T04:26:43.574Z,19.99
2018-06-01T04:29:12.225Z,20.07
2018-06-01T04:31:40.997Z,20.39
2018-06-01T04:34:09.752Z,20.45
2018-06-01T04:36:38.257Z,20.53
2018-06-01T04:39:07.262Z,20.76
2018-06-01T04:41:36.662Z,21.00
2018-06-01T04:44:05.950Z,21.08
2018-06-01T04:46:35.283Z,21.64
2018-06-01T04:49:04.829Z,22.14
2018-06-01T04:51:33.414Z,22.43
2018-06-01T04:54:02.107Z,23.29
2018-06-01T04:56:30.618Z,23.75
2018-06-01T04:58:59.114Z,23.74
2018-06-01T05:01:28.674Z,23.87
2018-06-01T05:03:57.170Z,24.28
2018-06-01T05:06:25.686Z,24.60
2018-06-01T05:08:55.278Z,24.75
2018-06-01T05:11:23.775Z,25.01
2018-06-01T05:13:53.096Z,25.40
2018-06-01T05:16:21.646Z,25.60
2018-06-01T05:18:50.395Z,25.72
2018-06-01T05:21:19.081Z,25.74
2018-06-01T05:23:47.754Z,25.34
2018-06-01T05:26:16.253Z,25.74
2018-06-01T05:28:44.962Z,25.74
2018-06-01T05:31:14.465Z,26.00
2018-06-01T05:33:43.073Z,26.15
2018-06-01T05:36:11.585Z,26.39
2018-06-01T05:38:40.594Z,26.53
2018-06-01T05:41:09.111Z,26.27
2018-06-01T05:43:37.605Z,26.43
2018-06-01T05:46:07.410Z,26.37
2018-06-01T05:48:36.682Z,26.76
2018-06-01T05:51:06.131Z,26.91
2018-06-01T05:53:35.438Z,26.87
2018-06-01T05:56:03.973Z,27.41
2018-06-01T05:58:32.635Z,27.30
2018-06-01T06:01:01.306Z,27.61
2018-06-01T06:03:29.809Z,27.79
2018-06-01T06:05:58.386Z,27.76
2018-06-01T06:08:27.546Z,27.75
2018-06-01T06:10:56.806Z,28.19
2018-06-01T06:13:25.370Z,28.34
2018-06-01T06:15:54.054Z,28.32
2018-06-01T06:18:22.549Z,28.49
2018-06-01T06:20:51.217Z,28.26
2018-06-01T06:23:19.937Z,28.54
2018-06-01T06:25:48.555Z,28.71
2018-06-01T06:28:17.882Z,29.12
2018-06-01T06:30:46.610Z,29.10
2018-06-01T06:33:15.365Z,29.16
2018-06-01T06:35:44.050Z,29.30
2018-06-01T06:38:13.043Z,29.35
2018-06-01T06:40:41.545Z,29.47
2018-06-01T06:43:10.052Z,30.00
2018-06-01T06:45:39.462Z,30.36
2018-06-01T06:48:08.916Z,30.16
2018-06-01T06:50:37.425Z,30.65
2018-06-01T06:53:06.214Z,30.55
2018-06-01T06:55:34.919Z,30.82
2018-06-01T06:58:04.230Z,30.72
2018-06-01T07:00:33.709Z,30.86
2018-06-01T07:03:02.974Z,31.04
2018-06-01T07:05:31.479Z,31.17
2018-06-01T07:08:00.041Z,31.57
2018-06-01T07:10:28.534Z,31.51
2018-06-01T07:12:57.976Z,31.71
2018-06-01T07:15:26.570Z,31.71
2018-06-01T07:17:55.293Z,31.69
2018-06-01T07:20:23.809Z,31.85
2018-06-01T07:22:53.062Z,32.01
2018-06-01T07:25:21.484Z,32.35
2018-06-01T07:27:50.693Z,32.67
2018-06-01T07:30:20.126Z,32.88
2018-06-01T07:32:48.561Z,32.50
2018-06-01T07:35:16.989Z,33.16
2018-06-01T07:37:45.790Z,32.91
2018-06-01T07:40:14.230Z,33.09
2018-06-01T07:42:43.425Z,33.21
2018-06-01T07:45:12.789Z,33.43
2018-06-01T07:47:41.232Z,33.68
2018-06-01T07:50:09.671Z,32.99
2018-06-01T07:52:38.299Z,32.64
2018-06-01T07:55:06.733Z,33.49
2018-06-01T07:57:35.156Z,33.56
2018-06-01T08:00:03.837Z,33.86
2018-06-01T08:02:32.272Z,33.94
2018-06-01T08:05:00.704Z,34.32
2018-06-01T08:07:29.393Z,35.20
2018-06-01T08:09:57.855Z,35.14
2018-06-01T08:12:26.309Z,34.79
2018-06-01T08:14:55.566Z,35.14
2018-06-01T08:17:24.024Z,35.34
2018-06-01T08:19:52.482Z,34.74
2018-06-01T08:22:20.980Z,35.12
2018-06-01T08:24:49.437Z,36.06
2018-06-01T08:27:17.892Z,36.09
2018-06-01T08:29:46.640Z,35.95
2018-06-01T08:32:15.161Z,36.47
2018-06-01T08:34:43.637Z,36.73
2018-06-01T08:37:12.278Z,36.88
2018-06-01T08:39:40.727Z,37.09
2018-06-01T08:42:09.178Z,37.09
2018-06-01T08:44:37.839Z,36.74
2018-06-01T08:47:06.301Z,35.99
2018-06-01T08:49:34.752Z,36.36
2018-06-01T08:52:03.288Z,36.97
2018-06-01T08:54:32.085Z,37.28
2018-06-01T08:57:00.536Z,37.37
2018-06-01T08:59:29.329Z,37.75
2018-06-01T09:01:57.775Z,37.60
2018-06-01T09:04:26.241Z,37.27
2018-06-01T09:06:55.954Z,37.57
2018-06-01T09:09:25.177Z,37.55
2018-06-01T09:11:53.657Z,37.46
2018-06-01T09:14:22.188Z,36.22
2018-06-01T09:16:52.210Z,37.34
2018-06-01T09:19:20.734Z,36.58
2018-06-01T09:21:49.307Z,37.11
2018-06-01T09:24:17.825Z,35.70
2018-06-01T09:26:46.530Z,35.81
2018-06-01T09:29:15.118Z,36.41
2018-06-01T09:31:45.142Z,36.38
2018-06-01T09:34:13.662Z,37.39
2018-06-01T09:36:42.445Z,36.88
2018-06-01T09:39:10.912Z,36.73
2018-06-01T09:41:40.137Z,37.77
2018-06-01T09:44:08.645Z,38.75
2018-06-01T09:46:37.149Z,39.23
2018-06-01T09:49:05.590Z,38.13
2018-06-01T09:51:34.217Z,38.38
2018-06-01T09:54:02.659Z,37.45
2018-06-01T09:56:31.104Z,38.40
2018-06-01T09:59:00.485Z,37.93
2018-06-01T10:01:29.718Z,37.62
2018-06-01T10:03:58.178Z,38.88
2018-06-01T10:06:27.625Z,38.99
2018-06-01T10:08:56.093Z,38.43
2018-06-01T10:11:24.553Z,38.25
2018-06-01T10:13:53.073Z,36.75
2018-06-01T10:16:21.524Z,37.05
2018-06-01T10:18:49.992Z,35.89
2018-06-01T10:21:19.272Z,36.47
2018-06-01T10:23:48.492Z,35.54
2018-06-01T10:26:17.721Z,35.75
2018-06-01T10:28:46.241Z,35.10
2018-06-01T10:31:14.698Z,34.95
2018-06-01T10:33:43.229Z,34.84
2018-06-01T10:36:12.709Z,34.92
2018-06-01T10:38:42.993Z,35.28
2018-06-01T10:41:11.511Z,36.01
2018-06-01T10:43:40.090Z,36.05
2018-06-01T10:46:08.877Z,36.26
2018-06-01T10:48:37.406Z,36.45
2018-06-01T10:51:06.198Z,36.51
2018-06-01T10:53:34.726Z,35.98
2018-06-01T10:56:03.253Z,35.80
2018-06-01T10:58:31.999Z,36.78
2018-06-01T11:01:00.537Z,36.28
2018-06-01T11:03:29.054Z,36.72
2018-06-01T11:05:57.777Z,36.99
2018-06-01T11:08:27.053Z,36.68
2018-06-01T11:10:55.582Z,37.70
2018-06-01T11:13:24.558Z,38.32
2018-06-01T11:15:53.247Z,38.74
2018-06-01T11:18:21.990Z,37.28
2018-06-01T11:20:50.717Z,36.85
2018-06-01T11:23:20.284Z,36.55
2018-06-01T11:25:48.970Z,36.20
2018-06-01T11:28:17.550Z,37.28
2018-06-01T11:30:46.339Z,37.35
2018-06-01T11:33:15.026Z,38.15
2018-06-01T11:35:43.753Z,38.20
2018-06-01T11:38:13.045Z,38.22
2018-06-01T11:40:42.333Z,36.75
2018-06-01T11:43:10.898Z,36.84
2018-06-01T11:45:39.413Z,36.71
2018-06-01T11:48:08.885Z,36.53
2018-06-01T11:50:38.966Z,36.57
2018-06-01T11:53:07.502Z,36.12
2018-06-01T11:55:36.787Z,35.94
2018-06-01T11:58:05.638Z,36.04
2018-06-01T12:00:34.251Z,34.82
2018-06-01T12:03:02.937Z,34.28
2018-06-01T12:05:31.601Z,35.87
2018-06-01T12:08:00.130Z,37.18
2018-06-01T12:10:29.411Z,36.28
2018-06-01T12:12:57.986Z,36.88
2018-06-01T12:15:26.781Z,38.12
2018-06-01T12:17:56.081Z,39.01
2018-06-01T12:20:24.656Z,39.81
2018-06-01T12:22:53.452Z,40.09
2018-06-01T12:25:22.160Z,40.35
2018-06-01T12:27:51.497Z,41.41
2018-06-01T12:30:20.015Z,40.98
2018-06-01T12:32:48.666Z,40.31
2018-06-01T12:35:17.525Z,40.06
2018-06-01T12:37:46.822Z,39.68
2018-06-01T12:40:16.167Z,39.94
2018-06-01T12:42:44.918Z,40.25
2018-06-01T12:45:13.607Z,37.97
2018-06-01T12:47:42.138Z,35.56
2018-06-01T12:50:10.865Z,34.61
2018-06-01T12:52:40.150Z,35.03
2018-06-01T12:55:08.674Z,35.03
2018-06-01T12:57:37.507Z,35.99
2018-06-01T13:00:06.107Z,36.72
2018-06-01T13:02:35.592Z,37.66
2018-06-01T13:05:04.853Z,37.30
2018-06-01T13:07:33.381Z,37.91
2018-06-01T13:10:01.911Z,37.44
2018-06-01T13:12:30.513Z,38.55
2018-06-01T13:14:59.086Z,39.56
2018-06-01T13:17:27.610Z,39.96
2018-06-01T13:19:56.403Z,37.86
2018-06-01T13:22:25.046Z,36.56
2018-06-01T13:24:53.571Z,36.74
2018-06-01T13:27:22.447Z,36.68
2018-06-01T13:29:51.774Z,37.33
2018-06-01T13:32:20.306Z,36.06
2018-06-01T13:34:49.325Z,35.73
2018-06-01T13:37:17.858Z,35.25
2018-06-01T13:39:46.389Z,35.18
2018-06-01T13:42:14.995Z,35.23
2018-06-01T13:44:44.354Z,34.93
2018-06-01T13:47:12.874Z,35.90
2018-06-01T13:49:42.508Z,37.56
2018-06-01T13:52:11.046Z,37.95
2018-06-01T13:54:40.366Z,38.85
2018-06-01T13:57:10.876Z,38.96
2018-06-01T13:59:39.582Z,38.11
2018-06-01T14:02:08.212Z,37.56
2018-06-01T14:04:37.138Z,37.28
2018-06-01T14:07:05.729Z,38.39
2018-06-01T14:09:34.245Z,39.35
2018-06-01T14:12:03.067Z,38.71
2018-06-01T14:14:32.359Z,38.25
2018-06-01T14:17:01.737Z,38.25
2018-06-01T14:19:30.779Z,38.01
2018-06-01T14:21:59.418Z,37.56
2018-06-01T14:24:29.457Z,37.59
2018-06-01T14:26:59.078Z,37.64
2018-06-01T14:29:28.365Z,37.63
2018-06-01T14:31:57.844Z,37.24
2018-06-01T14:34:26.424Z,36.72
2018-06-01T14:36:54.940Z,36.50
2018-06-01T14:39:24.234Z,35.92
2018-06-01T14:41:53.585Z,35.18
2018-06-01T14:44:22.127Z,34.70
2018-06-01T14:46:50.847Z,34.81
2018-06-01T14:49:19.418Z,34.66
2018-06-01T14:51:47.953Z,35.40
2018-06-01T14:54:16.474Z,35.14
2018-06-01T14:56:45.450Z,34.56
2018-06-01T14:59:13.982Z,34.46
2018-06-01T15:01:42.515Z,33.87
2018-06-01T15:04:11.886Z,33.87
2018-06-01T15:06:40.444Z,33.81
2018-06-01T15:09:09.054Z,33.71
2018-06-01T15:11:37.831Z,33.36
2018-06-01T15:14:06.418Z,33.82
2018-06-01T15:16:35.201Z,34.62
2018-06-01T15:19:04.864Z,35.28
2018-06-01T15:21:33.467Z,35.37
2018-06-01T15:24:01.998Z,35.71
2018-06-01T15:26:31.787Z,36.26
2018-06-01T15:29:00.333Z,36.19
2018-06-01T15:31:28.910Z,36.42
2018-06-01T15:33:57.725Z,36.10
2018-06-01T15:36:26.222Z,35.96
2018-06-01T15:38:54.745Z,35.83
2018-06-01T15:41:23.318Z,35.27
2018-06-01T15:43:52.614Z,35.56
2018-06-01T15:46:21.914Z,36.15
2018-06-01T15:48:51.798Z,36.19
2018-06-01T15:51:20.592Z,36.41
2018-06-01T15:53:49.893Z,36.13
2018-06-01T15:56:20.720Z,36.19
2018-06-01T15:58:49.273Z,36.21
2018-06-01T16:01:17.801Z,36.53
2018-06-01T16:03:46.618Z,37.19
2018-06-01T16:06:15.234Z,36.73
2018-06-01T16:08:43.754Z,36.29
2018-06-01T16:11:12.654Z,36.06
2018-06-01T16:13:42.031Z,36.02
2018-06-01T16:16:10.562Z,36.35
2018-06-01T16:18:39.125Z,36.19
2018-06-01T16:21:08.704Z,35.14
2018-06-01T16:23:37.391Z,34.76
2018-06-01T16:26:06.214Z,34.74
2018-06-01T16:28:35.595Z,34.53
2018-06-01T16:31:04.150Z,34.73
2018-06-01T16:33:33.090Z,35.09
2018-06-01T16:36:02.425Z,35.07
2018-06-01T16:38:30.938Z,34.72
2018-06-01T16:41:00.249Z,34.60
2018-06-01T16:43:28.846Z,33.77
2018-06-01T16:45:58.942Z,33.49
2018-06-01T16:48:27.523Z,33.22
2018-06-01T16:50:56.042Z,33.16
2018-06-01T16:53:25.515Z,33.11
2018-06-01T16:55:55.160Z,33.16
2018-06-01T16:58:23.690Z,33.00
2018-06-01T17:00:52.366Z,32.77
2018-06-01T17:03:21.274Z,32.51
2018-06-01T17:05:50.003Z,32.37
2018-06-01T17:08:18.753Z,32.24
2018-06-01T17:10:47.838Z,31.72
2018-06-01T17:13:16.537Z,31.56
2018-06-01T17:15:45.039Z,31.36
2018-06-01T17:18:13.578Z,31.24
2018-06-01T17:20:42.122Z,31.27
2018-06-01T17:23:11.487Z,31.07
2018-06-01T17:25:40.362Z,30.92
2018-06-01T17:28:08.951Z,30.87
2018-06-01T17:30:37.689Z,30.68
2018-06-01T17:33:06.358Z,30.69
2018-06-01T17:35:35.634Z,30.63
2018-06-01T17:38:04.404Z,30.47
2018-06-01T17:40:33.384Z,30.30
2018-06-01T17:43:01.958Z,30.08
2018-06-01T17:45:30.670Z,29.94
2018-06-01T17:47:59.643Z,29.86
2018-06-01T17:50:28.146Z,29.75
2018-06-01T17:52:56.640Z,29.70
2018-06-01T17:55:25.773Z,29.51
2018-06-01T17:57:54.281Z,29.35
2018-06-01T18:00:22.794Z,29.24
2018-06-01T18:02:51.502Z,29.16
2018-06-01T18:05:19.998Z,29.04
2018-06-01T18:07:49.262Z,28.93
2018-06-01T18:10:17.974Z,28.77
2018-06-01T18:12:46.474Z,28.66
2018-06-01T18:15:15.145Z,28.55
2018-06-01T18:17:44.465Z,28.43
2018-06-01T18:20:13.189Z,28.42
2018-06-01T18:22:41.748Z,28.47
2018-06-01T18:25:11.214Z,28.54
2018-06-01T18:27:40.632Z,28.56
2018-06-01T18:30:10.080Z,28.51
2018-06-01T18:32:38.614Z,28.48
2018-06-01T18:35:08.065Z,28.36
2018-06-01T18:37:36.759Z,28.26
2018-06-01T18:40:05.338Z,28.15
2018-06-01T18:42:33.837Z,28.11
2018-06-01T18:45:02.479Z,27.97
2018-06-01T18:47:31.225Z,28.01
2018-06-01T18:50:00.694Z,27.91
2018-06-01T18:52:29.982Z,27.79
2018-06-01T18:54:58.526Z,27.72
2018-06-01T18:57:27.046Z,27.62
2018-06-01T18:59:55.534Z,27.51
2018-06-01T19:02:24.089Z,27.33
2018-06-01T19:04:52.591Z,27.21
2018-06-01T19:07:21.094Z,26.97
2018-06-01T19:09:49.798Z,26.81
2018-06-01T19:12:18.306Z,26.70
2018-06-01T19:14:47.574Z,26.55
2018-06-01T19:17:16.298Z,26.52
2018-06-01T19:19:44.789Z,26.41
2018-06-01T19:22:13.285Z,26.18
2018-06-01T19:24:41.983Z,26.02
2018-06-01T19:27:10.646Z,25.74
2018-06-01T19:29:39.202Z,25.79
2018-06-01T19:32:07.761Z,25.60
2018-06-01T19:34:37.090Z,25.43
2018-06-01T19:37:06.366Z,25.27
2018-06-01T19:39:35.391Z,25.44
2018-06-01T19:42:03.901Z,25.41
2018-06-01T19:44:32.704Z,25.14
2018-06-01T19:47:01.265Z,24.29
2018-06-01T19:49:31.802Z,24.22
2018-06-01T19:52:00.310Z,23.96
2018-06-01T19:54:29.114Z,23.72
2018-06-01T19:56:58.373Z,23.49
2018-06-01T19:59:26.918Z,23.51
2018-06-01T20:01:56.398Z,23.79
2018-06-01T20:04:25.667Z,23.88
2018-06-01T20:06:54.344Z,23.85
2018-06-01T20:09:23.246Z,23.89
2018-06-01T20:11:51.846Z,23.90
2018-06-01T20:14:20.347Z,23.86
2018-06-01T20:16:49.910Z,23.85
2018-06-01T20:19:18.587Z,23.87
2018-06-01T20:21:47.090Z,24.09
2018-06-01T20:24:15.666Z,24.22
2018-06-01T20:26:44.166Z,24.04
2018-06-01T20:29:13.470Z,23.77
2018-06-01T20:31:42.974Z,23.56
2018-06-01T20:34:11.729Z,23.53
2018-06-01T20:36:40.234Z,23.82
2018-06-01T20:39:08.930Z,23.90
2018-06-01T20:41:37.479Z,24.05
2018-06-01T20:44:06.475Z,24.25
2018-06-01T20:46:35.401Z,24.39
2018-06-01T20:49:04.150Z,24.58
2018-06-01T20:51:32.655Z,24.73
2018-06-01T20:54:01.618Z,24.66
2018-06-01T20:56:30.130Z,24.68
2018-06-01T20:58:58.646Z,24.47
2018-06-01T21:01:27.368Z,24.20
2018-06-01T21:03:55.878Z,24.33
2018-06-01T21:06:24.530Z,24.18
2018-06-01T21:08:53.257Z,24.04
2018-06-01T21:11:21.757Z,23.95
2018-06-01T21:13:51.102Z,23.92
2018-06-01T21:16:19.762Z,24.07
2018-06-01T21:18:48.261Z,23.98
2018-06-01T21:21:16.856Z,23.85
2018-06-01T21:23:45.545Z,23.83
2018-06-01T21:26:14.046Z,23.70
2018-06-01T21:28:42.559Z,23.54
2018-06-01T21:31:11.874Z,23.44
2018-06-01T21:33:40.385Z,23.40
2018-06-01T21:36:09.067Z,23.37
2018-06-01T21:38:37.834Z,23.42
2018-06-01T21:41:06.546Z,23.20
2018-06-01T21:43:35.057Z,23.03
2018-06-01T21:46:03.849Z,23.11
2018-06-01T21:48:32.357Z,23.01
2018-06-01T21:51:00.870Z,22.93
2018-06-01T21:53:29.430Z,23.13
2018-06-01T21:55:57.929Z,23.07
2018-06-01T21:58:26.461Z,22.98
2018-06-01T22:00:55.914Z,23.09
2018-06-01T22:03:24.424Z,22.91
2018-06-01T22:05:52.926Z,23.00
2018-06-01T22:08:21.502Z,23.02
2018-06-01T22:10:50.257Z,23.00
2018-06-01T22:13:18.766Z,23.19
2018-06-01T22:15:47.483Z,23.21
2018-06-01T22:18:15.994Z,23.14
2018-06-01T22:20:44.646Z,23.13
2018-06-01T22:23:13.205Z,23.00
2018-06-01T22:25:41.865Z,23.02
2018-06-01T22:28:10.377Z,22.94
2018-06-01T22:30:40.195Z,23.00
2018-06-01T22:33:09.466Z,23.00
2018-06-01T22:35:38.009Z,22.97
2018-06-01T22:38:06.553Z,23.01
2018-06-01T22:40:35.057Z,23.06
2018-06-01T22:43:04.381Z,23.06
2018-06-01T22:45:33.334Z,23.00
2018-06-01T22:48:02.602Z,22.85
2018-06-01T22:50:31.287Z,22.84
2018-06-01T22:52:59.850Z,22.74
2018-06-01T22:55:28.369Z,22.76
2018-06-01T22:57:56.874Z,22.50
2018-06-01T23:13:48.361Z,22.44
2018-06-01T23:16:16.875Z,22.56
2018-06-01T23:18:45.378Z,22.38
2018-06-01T23:21:14.109Z,22.34
2018-06-01T23:23:42.866Z,22.48
2018-06-01T23:26:11.373Z,22.51
2018-06-01T23:28:40.027Z,22.60
2018-06-01T23:31:08.714Z,22.42
2018-06-01T23:33:37.217Z,22.29
2018-06-01T23:36:05.767Z,22.09
2018-06-01T23:38:34.463Z,22.07
2018-06-01T23:41:03.149Z,22.10
2018-06-01T23:43:32.964Z,22.02
2018-06-01T23:46:01.462Z,22.12
2018-06-01T23:48:31.471Z,22.05
2018-06-01T23:51:00.186Z,21.80
2018-06-01T23:53:28.685Z,21.82
2018-06-01T23:55:58.122Z,21.63
2018-06-01T23:58:26.854Z,21.50
